createdAt,value
2022-09-26T00:00:31.300Z,9.60
2022-09-26T00:03:19.101Z,9.60
2022-09-26T00:06:08.428Z,9.60
2022-09-26T00:08:56.795Z,9.60
2022-09-26T00:11:45.611Z,9.60
2022-09-26T00:14:35.077Z,9.50
2022-09-26T00:17:22.917Z,9.50
2022-09-26T00:20:10.768Z,9.50
2022-09-26T00:22:58.705Z,9.40
2022-09-26T00:25:47.409Z,9.40
2022-09-26T00:28:35.373Z,9.40
2022-09-26T00:31:25.947Z,9.40
2022-09-26T00:34:14.325Z,9.40
2022-09-26T00:37:02.108Z,9.40
2022-09-26T00:39:49.914Z,9.40
2022-09-26T00:42:37.701Z,9.40
2022-09-26T00:45:26.876Z,9.40
2022-09-26T00:48:16.033Z,9.40
2022-09-26T00:51:04.304Z,9.40
2022-09-26T00:53:53.067Z,9.30
2022-09-26T00:56:42.385Z,9.40
2022-09-26T00:59:31.595Z,9.40
2022-09-26T01:02:19.789Z,9.40
2022-09-26T01:05:11.084Z,9.30
2022-09-26T01:08:00.000Z,9.30
2022-09-26T01:10:47.983Z,9.30
2022-09-26T01:13:36.682Z,9.30
2022-09-26T01:16:24.560Z,9.30
2022-09-26T01:19:15.000Z,9.40
2022-09-26T01:22:13.083Z,9.30
2022-09-26T01:25:10.404Z,9.30
2022-09-26T01:28:05.556Z,9.30
2022-09-26T01:30:57.481Z,9.30
2022-09-26T01:33:52.059Z,9.30
2022-09-26T01:36:46.437Z,9.20
2022-09-26T01:39:42.229Z,9.30
2022-09-26T01:42:36.952Z,9.30
2022-09-26T01:45:28.682Z,9.30
2022-09-26T01:48:20.982Z,9.20
2022-09-26T01:51:14.510Z,9.30
2022-09-26T01:54:05.325Z,9.30
2022-09-26T01:56:55.719Z,9.30
2022-09-26T01:59:46.875Z,9.40
2022-09-26T02:02:37.103Z,9.30
2022-09-26T02:05:28.126Z,9.40
2022-09-26T02:08:17.229Z,9.40
2022-09-26T02:11:07.287Z,9.40
2022-09-26T02:13:57.474Z,9.40
2022-09-26T02:16:47.921Z,9.40
2022-09-26T02:19:38.081Z,9.40
2022-09-26T02:22:28.993Z,9.40
2022-09-26T02:25:18.044Z,9.40
2022-09-26T02:28:05.862Z,9.40
2022-09-26T02:30:54.875Z,9.40
2022-09-26T02:33:42.635Z,9.40
2022-09-26T02:36:34.453Z,9.40
2022-09-26T02:39:23.811Z,9.40
2022-09-26T02:42:16.994Z,9.40
2022-09-26T02:45:11.946Z,9.40
2022-09-26T02:48:07.276Z,9.40
2022-09-26T02:51:02.910Z,9.30
2022-09-26T02:53:58.009Z,9.40
2022-09-26T02:56:51.634Z,9.30
2022-09-26T02:59:47.301Z,9.40
2022-09-26T03:02:39.892Z,9.30
2022-09-26T03:05:29.335Z,9.30
2022-09-26T03:08:19.046Z,9.30
2022-09-26T03:11:10.786Z,9.20
2022-09-26T03:14:00.395Z,9.20
2022-09-26T03:16:49.264Z,9.10
2022-09-26T03:19:39.519Z,9.10
2022-09-26T03:22:27.689Z,9.10
2022-09-26T03:25:16.866Z,9.10
2022-09-26T03:28:05.678Z,9.10
2022-09-26T03:30:54.821Z,9.00
2022-09-26T03:33:42.638Z,9.00
2022-09-26T03:36:32.144Z,9.00
2022-09-26T03:39:20.007Z,9.00
2022-09-26T03:42:07.863Z,8.90
2022-09-26T03:44:57.062Z,8.90
2022-09-26T03:47:46.201Z,8.90
2022-09-26T03:50:34.760Z,8.90
2022-09-26T03:53:22.574Z,8.90
2022-09-26T03:56:11.307Z,8.90
2022-09-26T03:58:59.161Z,8.90
2022-09-26T04:01:46.961Z,8.90
2022-09-26T04:04:36.178Z,8.90
2022-09-26T04:07:23.953Z,8.80
2022-09-26T04:10:12.297Z,8.80
2022-09-26T04:13:00.060Z,8.80
2022-09-26T04:15:55.142Z,8.80
2022-09-26T04:18:43.086Z,8.80
2022-09-26T04:21:34.691Z,8.80
2022-09-26T04:24:22.522Z,8.80
2022-09-26T04:27:10.326Z,8.90
2022-09-26T04:29:58.271Z,8.90
2022-09-26T04:32:46.070Z,8.90
2022-09-26T04:35:33.893Z,8.90
2022-09-26T04:38:23.085Z,8.90
2022-09-26T04:41:11.712Z,8.90
2022-09-26T04:44:00.197Z,8.90
2022-09-26T04:46:48.151Z,8.90
2022-09-26T04:49:36.273Z,8.90
2022-09-26T04:52:24.159Z,8.80
2022-09-26T04:55:15.284Z,8.80
2022-09-26T04:58:03.115Z,8.70
2022-09-26T05:00:50.983Z,8.70
2022-09-26T05:03:38.878Z,8.60
2022-09-26T05:06:26.837Z,8.70
2022-09-26T05:09:14.775Z,8.70
2022-09-26T05:12:04.164Z,8.60
2022-09-26T05:14:54.077Z,8.70
2022-09-26T05:17:45.006Z,8.60
2022-09-26T05:20:32.813Z,8.60
2022-09-26T05:23:35.386Z,8.60
2022-09-26T05:26:25.240Z,8.60
2022-09-26T05:29:14.903Z,8.50
2022-09-26T05:32:02.944Z,8.60
2022-09-26T05:34:51.067Z,8.60
2022-09-26T05:37:38.917Z,8.50
2022-09-26T05:40:44.674Z,8.50
2022-09-26T05:43:33.823Z,8.50
2022-09-26T05:46:23.053Z,8.60
2022-09-26T05:49:11.845Z,8.60
2022-09-26T05:51:59.867Z,8.60
2022-09-26T05:54:47.659Z,8.70
2022-09-26T05:57:35.460Z,8.70
2022-09-26T06:00:23.311Z,8.70
2022-09-26T06:03:12.483Z,8.70
2022-09-26T06:06:01.819Z,8.70
2022-09-26T06:08:49.994Z,8.70
2022-09-26T06:11:37.766Z,8.70
2022-09-26T06:14:26.659Z,8.80
2022-09-26T06:17:14.460Z,8.80
2022-09-26T06:20:03.921Z,8.80
2022-09-26T06:22:52.715Z,8.80
2022-09-26T06:25:40.524Z,8.80
2022-09-26T06:28:28.695Z,8.70
2022-09-26T06:31:18.158Z,8.90
2022-09-26T06:34:07.574Z,8.90
2022-09-26T06:36:56.693Z,9.00
2022-09-26T06:39:44.541Z,9.00
2022-09-26T06:42:37.840Z,9.00
2022-09-26T06:45:26.608Z,9.00
2022-09-26T06:48:14.409Z,9.00
2022-09-26T06:51:02.231Z,9.10
2022-09-26T06:53:51.707Z,9.10
2022-09-26T06:56:39.526Z,9.20
2022-09-26T06:59:27.332Z,9.20
2022-09-26T07:02:16.983Z,9.30
2022-09-26T07:05:05.630Z,9.30
2022-09-26T07:07:54.962Z,9.40
2022-09-26T07:10:44.161Z,9.40
2022-09-26T07:13:32.463Z,9.50
2022-09-26T07:16:20.644Z,9.50
2022-09-26T07:19:08.626Z,9.60
2022-09-26T07:21:56.469Z,9.60
2022-09-26T07:24:50.174Z,9.70
2022-09-26T07:27:39.577Z,9.70
2022-09-26T07:30:28.377Z,9.80
2022-09-26T07:33:16.221Z,9.80
2022-09-26T07:36:05.725Z,9.80
2022-09-26T07:38:53.865Z,9.80
2022-09-26T07:41:41.706Z,9.90
2022-09-26T07:45:17.031Z,9.90
2022-09-26T07:48:04.729Z,10.00
2022-09-26T07:50:55.118Z,10.10
2022-09-26T07:53:43.082Z,10.10
2022-09-26T07:56:34.460Z,10.20
2022-09-26T07:59:23.170Z,10.20
2022-09-26T08:02:21.788Z,10.40
2022-09-26T08:05:10.286Z,10.40
2022-09-26T08:07:58.152Z,10.50
2022-09-26T08:10:46.366Z,10.60
2022-09-26T08:13:34.214Z,10.70
2022-09-26T08:16:23.470Z,10.80
2022-09-26T08:19:17.262Z,10.80
2022-09-26T08:22:07.444Z,10.80
2022-09-26T08:24:55.402Z,10.80
2022-09-26T08:27:44.054Z,11.00
2022-09-26T08:30:32.028Z,10.90
2022-09-26T08:33:21.708Z,11.00
2022-09-26T08:36:11.838Z,11.00
2022-09-26T08:38:59.704Z,11.00
2022-09-26T08:41:56.347Z,11.10
2022-09-26T08:45:00.749Z,11.10
2022-09-26T08:47:50.655Z,11.10
2022-09-26T08:50:42.641Z,11.20
2022-09-26T08:53:35.902Z,11.20
2022-09-26T08:56:28.429Z,11.40
2022-09-26T08:59:21.929Z,11.50
2022-09-26T09:02:13.238Z,11.60
2022-09-26T09:05:04.484Z,11.70
2022-09-26T09:07:54.349Z,11.80
2022-09-26T09:10:45.791Z,11.90
2022-09-26T09:13:45.635Z,12.00
2022-09-26T09:16:51.622Z,12.00
2022-09-26T09:19:46.867Z,12.10
2022-09-26T09:22:46.406Z,12.20
2022-09-26T09:25:39.975Z,12.30
2022-09-26T09:28:33.632Z,12.40
2022-09-26T09:31:22.593Z,12.40
2022-09-26T09:34:11.630Z,12.40
2022-09-26T09:37:02.715Z,12.50
2022-09-26T09:39:51.440Z,12.60
2022-09-26T09:42:41.599Z,12.70
2022-09-26T09:45:33.773Z,12.80
2022-09-26T09:48:21.579Z,12.80
2022-09-26T09:51:18.714Z,12.90
2022-09-26T09:54:20.015Z,12.90
2022-09-26T09:57:17.043Z,13.00
2022-09-26T10:00:09.681Z,13.00
2022-09-26T10:03:01.220Z,13.00
2022-09-26T10:05:50.352Z,13.00
2022-09-26T10:08:41.691Z,13.00
2022-09-26T10:11:30.540Z,12.90
2022-09-26T10:14:21.999Z,12.90
2022-09-26T10:17:20.467Z,12.90
2022-09-26T10:20:33.374Z,12.80
2022-09-26T10:23:23.579Z,12.80
2022-09-26T10:26:13.764Z,12.70
2022-09-26T10:29:02.977Z,12.60
2022-09-26T10:31:56.545Z,12.80
2022-09-26T10:34:44.892Z,12.80
2022-09-26T10:37:37.019Z,12.90
2022-09-26T10:40:44.768Z,13.00
2022-09-26T10:43:33.538Z,13.20
2022-09-26T10:46:23.548Z,13.30
2022-09-26T10:49:14.035Z,13.30
2022-09-26T10:52:05.469Z,13.30
2022-09-26T10:54:57.388Z,13.20
2022-09-26T10:57:50.034Z,13.20
2022-09-26T11:00:40.215Z,13.30
2022-09-26T11:03:34.421Z,13.30
2022-09-26T11:06:24.205Z,13.50
2022-09-26T11:09:14.016Z,13.70
2022-09-26T11:12:22.489Z,13.80
2022-09-26T11:15:11.377Z,13.90
2022-09-26T11:17:59.491Z,13.90
2022-09-26T11:20:51.464Z,13.90
2022-09-26T11:23:41.628Z,13.90
2022-09-26T11:26:34.029Z,13.80
2022-09-26T11:29:27.760Z,13.80
2022-09-26T11:32:18.290Z,13.80
2022-09-26T11:35:06.494Z,13.70
2022-09-26T11:38:04.636Z,13.50
2022-09-26T11:41:03.701Z,13.50
2022-09-26T11:43:54.367Z,13.40
2022-09-26T11:46:47.940Z,13.40
2022-09-26T11:49:46.177Z,13.30
2022-09-26T11:52:45.456Z,13.10
2022-09-26T11:55:43.242Z,13.10
2022-09-26T11:58:40.108Z,13.10
2022-09-26T12:01:38.192Z,13.30
2022-09-26T12:04:35.484Z,13.40
2022-09-26T12:07:24.484Z,13.40
2022-09-26T12:10:19.186Z,13.60
2022-09-26T12:13:12.185Z,13.70
2022-09-26T12:16:03.802Z,13.80
2022-09-26T12:18:56.006Z,13.80
2022-09-26T12:22:10.232Z,13.90
2022-09-26T12:25:04.918Z,13.80
2022-09-26T12:28:00.139Z,13.80
2022-09-26T12:30:55.386Z,13.80
2022-09-26T12:33:55.982Z,13.80
2022-09-26T12:36:51.104Z,13.80
2022-09-26T12:39:53.902Z,13.60
2022-09-26T12:42:47.823Z,13.40
2022-09-26T12:45:53.860Z,13.30
2022-09-26T12:48:47.549Z,13.20
2022-09-26T12:51:41.282Z,13.10
2022-09-26T12:54:35.166Z,13.10
2022-09-26T12:57:27.282Z,13.10
2022-09-26T13:00:18.603Z,13.30
2022-09-26T13:03:35.411Z,13.30
2022-09-26T13:06:33.055Z,13.40
2022-09-26T13:09:28.625Z,13.30
2022-09-26T13:12:26.437Z,13.30
2022-09-26T13:15:20.201Z,13.30
2022-09-26T13:18:12.297Z,13.20
2022-09-26T13:21:01.456Z,13.20
2022-09-26T13:23:53.577Z,13.10
2022-09-26T13:26:43.804Z,13.20
2022-09-26T13:29:33.890Z,13.20
2022-09-26T13:32:24.534Z,13.30
2022-09-26T13:35:18.018Z,13.40
2022-09-26T13:38:15.414Z,13.20
2022-09-26T13:41:08.739Z,13.10
2022-09-26T13:44:03.433Z,13.10
2022-09-26T13:46:59.323Z,13.10
2022-09-26T13:49:53.372Z,13.00
2022-09-26T13:52:46.812Z,13.00
2022-09-26T13:55:35.983Z,12.90
2022-09-26T13:58:26.302Z,12.90
2022-09-26T14:01:25.405Z,12.90
2022-09-26T14:04:21.505Z,12.90
2022-09-26T14:07:36.624Z,12.80
2022-09-26T14:10:36.125Z,12.90
2022-09-26T14:13:33.550Z,12.90
2022-09-26T14:16:34.262Z,12.90
2022-09-26T14:19:29.649Z,12.90
2022-09-26T14:22:34.776Z,13.00
2022-09-26T14:25:41.469Z,12.90
2022-09-26T14:28:32.658Z,13.00
2022-09-26T14:31:44.701Z,13.00
2022-09-26T14:34:37.334Z,13.00
2022-09-26T14:37:31.816Z,13.10
2022-09-26T14:40:29.627Z,13.10
2022-09-26T14:43:19.532Z,13.20
2022-09-26T14:46:09.019Z,13.20
2022-09-26T14:48:58.045Z,13.30
2022-09-26T14:51:49.523Z,13.40
2022-09-26T14:54:38.489Z,13.40
2022-09-26T14:57:28.928Z,13.50
2022-09-26T15:00:37.099Z,13.50
2022-09-26T15:03:25.058Z,13.50
2022-09-26T15:06:13.291Z,13.40
2022-09-26T15:09:09.045Z,13.40
2022-09-26T15:11:59.131Z,13.30
2022-09-26T15:14:48.896Z,13.30
2022-09-26T15:17:39.518Z,13.30
2022-09-26T15:20:28.194Z,13.20
2022-09-26T15:23:22.412Z,13.20
2022-09-26T15:26:11.710Z,13.20
2022-09-26T15:29:00.128Z,13.20
2022-09-26T15:31:48.271Z,13.20
2022-09-26T15:34:37.132Z,13.10
2022-09-26T15:37:25.821Z,13.10
2022-09-26T15:40:16.785Z,13.00
2022-09-26T15:43:09.557Z,13.00
2022-09-26T15:45:59.173Z,13.00
2022-09-26T15:48:47.103Z,13.00
2022-09-26T15:51:37.641Z,13.00
2022-09-26T15:54:27.941Z,12.90
2022-09-26T15:57:15.794Z,12.90
2022-09-26T16:00:05.323Z,12.80
2022-09-26T16:02:53.765Z,12.80
2022-09-26T16:05:45.277Z,12.80
2022-09-26T16:08:36.485Z,12.70
2022-09-26T16:11:25.509Z,12.70
2022-09-26T16:14:26.751Z,12.70
2022-09-26T16:17:20.223Z,12.70
2022-09-26T16:20:23.634Z,12.70
2022-09-26T16:23:26.107Z,12.70
2022-09-26T16:26:22.664Z,12.60
2022-09-26T16:29:10.921Z,12.50
2022-09-26T16:31:59.505Z,12.50
2022-09-26T16:34:49.091Z,12.50
2022-09-26T16:37:36.967Z,12.50
2022-09-26T16:40:24.890Z,12.50
2022-09-26T16:43:18.842Z,12.40
2022-09-26T16:46:09.263Z,12.30
2022-09-26T16:48:57.881Z,12.30
2022-09-26T16:52:07.047Z,12.30
2022-09-26T16:54:55.324Z,12.20
2022-09-26T16:57:50.005Z,12.20
2022-09-26T17:00:55.716Z,12.20
2022-09-26T17:03:44.450Z,12.10
2022-09-26T17:06:33.352Z,12.10
2022-09-26T17:09:23.480Z,12.10
2022-09-26T17:12:16.045Z,12.10
2022-09-26T17:15:06.666Z,12.10
2022-09-26T17:17:54.915Z,12.10
2022-09-26T17:20:44.843Z,12.10
2022-09-26T17:23:42.279Z,12.10
2022-09-26T17:26:34.896Z,12.00
2022-09-26T17:29:25.041Z,12.00
2022-09-26T17:32:14.359Z,12.00
2022-09-26T17:35:03.715Z,12.00
2022-09-26T17:37:51.738Z,12.00
2022-09-26T17:40:45.889Z,12.00
2022-09-26T17:43:35.605Z,12.00
2022-09-26T17:46:25.365Z,11.90
2022-09-26T17:49:13.852Z,11.90
2022-09-26T17:52:02.556Z,11.90
2022-09-26T17:54:52.145Z,11.90
2022-09-26T17:57:41.921Z,11.90
2022-09-26T18:00:35.080Z,11.90
2022-09-26T18:03:25.019Z,11.90
2022-09-26T18:06:12.817Z,11.90
2022-09-26T18:09:05.171Z,11.90
2022-09-26T18:11:59.669Z,11.90
2022-09-26T18:14:47.590Z,11.90
2022-09-26T18:17:37.273Z,11.80
2022-09-26T18:20:28.376Z,11.80
2022-09-26T18:23:20.450Z,11.80
2022-09-26T18:26:10.083Z,11.70
2022-09-26T18:28:58.261Z,11.70
2022-09-26T18:31:46.781Z,11.70
2022-09-26T18:34:35.964Z,11.80
2022-09-26T18:37:23.836Z,11.70
2022-09-26T18:40:14.640Z,11.70
2022-09-26T18:43:03.517Z,11.70
2022-09-26T18:45:51.411Z,11.50
2022-09-26T18:48:39.297Z,11.70
2022-09-26T18:51:28.831Z,11.70
2022-09-26T18:54:17.812Z,11.70
2022-09-26T18:57:23.528Z,11.70
2022-09-26T19:00:12.155Z,11.70
2022-09-26T19:03:04.811Z,11.70
2022-09-26T19:05:53.648Z,11.60
2022-09-26T19:08:43.791Z,11.60
2022-09-26T19:11:36.531Z,11.60
2022-09-26T19:14:25.905Z,11.60
2022-09-26T19:17:14.026Z,11.60
2022-09-26T19:20:02.202Z,11.60
2022-09-26T19:22:50.762Z,11.50
2022-09-26T19:25:39.961Z,11.60
2022-09-26T19:28:28.801Z,11.60
2022-09-26T19:31:16.662Z,11.60
2022-09-26T19:34:04.972Z,11.60
2022-09-26T19:36:53.289Z,11.60
2022-09-26T19:39:41.062Z,11.60
2022-09-26T19:42:32.613Z,11.50
2022-09-26T19:45:20.648Z,11.50
2022-09-26T19:48:09.492Z,11.50
2022-09-26T19:50:57.257Z,11.50
2022-09-26T19:53:45.232Z,11.50
2022-09-26T19:56:33.210Z,11.50
2022-09-26T19:59:26.741Z,11.50
2022-09-26T20:02:16.546Z,11.40
2022-09-26T20:05:06.902Z,11.40
2022-09-26T20:07:54.921Z,11.40
2022-09-26T20:10:43.008Z,11.40
2022-09-26T20:13:50.907Z,11.40
2022-09-26T20:16:42.243Z,11.30
2022-09-26T20:19:36.215Z,11.30
2022-09-26T20:22:24.471Z,11.20
2022-09-26T20:25:15.519Z,11.30
2022-09-26T20:28:03.343Z,11.30
2022-09-26T20:30:55.288Z,11.30
2022-09-26T20:33:44.903Z,11.30
2022-09-26T20:36:33.731Z,11.30
2022-09-26T20:39:23.579Z,11.30
2022-09-26T20:42:14.616Z,11.30
2022-09-26T20:45:02.467Z,11.30
2022-09-26T20:47:50.629Z,11.20
2022-09-26T20:50:39.882Z,11.30
2022-09-26T20:53:27.926Z,11.20
2022-09-26T20:56:17.020Z,11.20
2022-09-26T20:59:05.399Z,11.20
2022-09-26T21:01:54.103Z,11.20
2022-09-26T21:04:41.931Z,11.10
2022-09-26T21:07:32.068Z,11.20
2022-09-26T21:10:21.511Z,11.20
2022-09-26T21:13:09.926Z,11.20
2022-09-26T21:15:57.741Z,11.20
2022-09-26T21:18:46.748Z,11.20
2022-09-26T21:21:34.549Z,11.20
2022-09-26T21:24:26.400Z,11.20
2022-09-26T21:27:14.380Z,11.20
2022-09-26T21:30:02.237Z,11.20
2022-09-26T21:32:51.678Z,11.20
2022-09-26T21:35:39.448Z,11.20
2022-09-26T21:38:27.342Z,11.20
2022-09-26T21:41:16.517Z,11.20
2022-09-26T21:44:05.834Z,11.10
2022-09-26T21:46:53.610Z,11.10
2022-09-26T21:49:41.379Z,11.10
2022-09-26T21:52:31.935Z,11.10
2022-09-26T21:55:21.806Z,11.10
2022-09-26T21:58:13.612Z,11.10
2022-09-26T22:01:01.514Z,11.20
2022-09-26T22:03:49.418Z,11.20
2022-09-26T22:06:37.213Z,11.10
2022-09-26T22:09:25.028Z,11.10
2022-09-26T22:12:12.816Z,11.10
2022-09-26T22:15:02.065Z,11.10
2022-09-26T22:17:49.830Z,11.10
2022-09-26T22:20:37.898Z,11.10
2022-09-26T22:23:25.697Z,11.10
2022-09-26T22:26:13.497Z,11.10
2022-09-26T22:29:01.272Z,11.20
2022-09-26T22:31:50.445Z,11.20
2022-09-26T22:34:38.314Z,11.10
2022-09-26T22:37:26.395Z,11.10
2022-09-26T22:40:17.289Z,11.10
2022-09-26T22:43:05.181Z,11.10
2022-09-26T22:45:53.082Z,11.10
2022-09-26T22:48:42.925Z,11.10
2022-09-26T22:51:30.771Z,11.10
2022-09-26T22:54:18.575Z,11.10
2022-09-26T22:57:06.416Z,11.10
2022-09-26T22:59:54.215Z,11.10
2022-09-26T23:02:42.016Z,11.10
2022-09-26T23:05:31.168Z,11.10
2022-09-26T23:08:19.004Z,11.10
2022-09-26T23:11:07.805Z,11.10
2022-09-26T23:13:55.634Z,11.10
2022-09-26T23:16:43.468Z,11.10
2022-09-26T23:19:31.354Z,11.20
2022-09-26T23:22:20.631Z,11.10
2022-09-26T23:25:09.204Z,11.10
2022-09-26T23:27:56.994Z,11.10
2022-09-26T23:30:45.070Z,11.10
2022-09-26T23:33:32.994Z,11.10
2022-09-26T23:36:21.220Z,11.10
2022-09-26T23:39:10.542Z,11.10
2022-09-26T23:41:58.812Z,11.10
2022-09-26T23:44:46.602Z,11.10
2022-09-26T23:47:34.501Z,11.10
2022-09-26T23:50:22.378Z,11.10
2022-09-26T23:53:10.231Z,11.10
2022-09-26T23:56:04.782Z,11.10
2022-09-26T23:58:52.683Z,11.10
